San Rafael, Argentina
Current Conditions -  °F | °C
As of 5:00 PM on Wednesday 26 Nov 2014 (Local Time) from SAME Reporting Station
Clear Clear  
Wind Chill: 31°   Ceiling: Unl
Heat Index: 31°   Visibility: 6mi
Dew Point:   Wind: 10mph
Humidity: 17%   Direction: 360°N
Pressure: 29.85"   Gusts: NA
Location:  34.62°S, 68.34°W
Report Text: SAME 262000Z 36009KT CAVOK 31/03 Q1011
Loading
Personal Weather Stations






























Interactive Weather Map New forecast layout! Learn more

10-Day Weather Forecast

Advertisements
Track Severe Weather on mobile